createdAt,value
2023-04-28T00:00:48.986Z,0.00
2023-04-28T00:01:48.663Z,0.00
2023-04-28T00:02:49.000Z,0.00
2023-04-28T00:03:48.866Z,0.00
2023-04-28T00:04:48.862Z,0.00
2023-04-28T00:05:48.739Z,0.00
2023-04-28T00:06:48.723Z,0.00
2023-04-28T00:07:48.711Z,0.00
2023-04-28T00:08:48.758Z,0.00
2023-04-28T00:09:48.743Z,0.00
2023-04-28T00:10:48.789Z,0.00
2023-04-28T00:11:48.553Z,0.00
2023-04-28T00:12:48.570Z,0.00
2023-04-28T00:13:48.584Z,0.00
2023-04-28T00:14:48.629Z,0.00
2023-04-28T00:15:48.577Z,0.00
2023-04-28T00:16:48.741Z,0.00
2023-04-28T00:17:48.830Z,0.00
2023-04-28T00:18:48.738Z,0.00
2023-04-28T00:19:48.765Z,0.00
2023-04-28T00:20:48.812Z,0.00
2023-04-28T00:21:48.418Z,0.00
2023-04-28T00:22:48.566Z,0.00
2023-04-28T00:23:48.395Z,0.00
2023-04-28T00:24:48.405Z,0.00
2023-04-28T00:25:48.963Z,0.00
2023-04-28T00:26:48.982Z,0.00
2023-04-28T00:27:48.984Z,0.00
2023-04-28T00:28:49.005Z,0.00
2023-04-28T00:29:48.651Z,0.00
2023-04-28T00:30:48.345Z,0.00
2023-04-28T00:31:48.564Z,0.00
2023-04-28T00:32:49.125Z,0.00
2023-04-28T00:33:48.457Z,0.00
2023-04-28T00:34:48.503Z,0.00
2023-04-28T00:35:49.099Z,0.00
2023-04-28T00:36:49.012Z,0.00
2023-04-28T00:37:48.842Z,0.00
2023-04-28T00:38:48.949Z,0.00
2023-04-28T00:39:48.223Z,0.00
2023-04-28T00:40:48.212Z,0.00
2023-04-28T00:41:48.885Z,0.00
2023-04-28T00:42:48.192Z,0.00
2023-04-28T00:43:48.241Z,0.00
2023-04-28T00:44:48.296Z,0.00
2023-04-28T00:45:48.170Z,0.00
2023-04-28T00:46:48.558Z,0.00
2023-04-28T00:47:48.901Z,0.00
2023-04-28T00:48:48.123Z,0.00
2023-04-28T00:49:48.521Z,0.00
2023-04-28T00:50:49.031Z,0.00
2023-04-28T00:51:49.005Z,0.00
2023-04-28T00:52:48.272Z,0.00
2023-04-28T00:53:48.815Z,0.00
2023-04-28T00:54:48.200Z,0.00
2023-04-28T00:55:48.166Z,0.00
2023-04-28T00:56:48.049Z,0.00
2023-04-28T00:57:48.026Z,0.00
2023-04-28T00:58:48.041Z,0.00
2023-04-28T00:59:48.013Z,0.00
2023-04-28T01:00:48.037Z,0.00
2023-04-28T01:01:48.094Z,0.00
2023-04-28T01:02:48.172Z,0.00
2023-04-28T01:03:48.318Z,0.00
2023-04-28T01:04:48.165Z,0.00
2023-04-28T01:05:47.947Z,0.00
2023-04-28T01:06:48.036Z,0.00
2023-04-28T01:07:48.035Z,0.00
2023-04-28T01:08:47.913Z,0.00
2023-04-28T01:09:48.303Z,0.00
2023-04-28T01:10:47.855Z,0.00
2023-04-28T01:11:48.306Z,0.00
2023-04-28T01:12:47.835Z,0.00
2023-04-28T01:13:48.037Z,0.00
2023-04-28T01:14:48.038Z,0.00
2023-04-28T01:15:47.880Z,0.00
2023-04-28T01:16:48.079Z,0.00
2023-04-28T01:17:48.556Z,0.00
2023-04-28T01:18:48.056Z,0.00
2023-04-28T01:19:48.054Z,0.00
2023-04-28T01:20:48.021Z,0.00
2023-04-28T01:21:48.045Z,0.00
2023-04-28T01:22:47.737Z,0.00
2023-04-28T01:23:47.726Z,0.00
2023-04-28T01:24:47.740Z,0.00
2023-04-28T01:25:47.747Z,0.00
2023-04-28T01:26:47.775Z,0.00
2023-04-28T01:27:47.778Z,0.00
2023-04-28T01:28:47.805Z,0.00
2023-04-28T01:29:47.803Z,0.00
2023-04-28T01:30:47.829Z,0.00
2023-04-28T01:31:48.043Z,0.00
2023-04-28T01:32:47.721Z,0.00
2023-04-28T01:33:47.584Z,0.00
2023-04-28T01:34:47.893Z,0.00
2023-04-28T01:35:47.663Z,0.00
2023-04-28T01:36:47.664Z,0.00
2023-04-28T01:37:47.549Z,0.00
2023-04-28T01:38:47.554Z,0.00
2023-04-28T01:39:47.529Z,0.00
2023-04-28T01:40:47.520Z,0.00
2023-04-28T01:41:47.494Z,0.00
2023-04-28T01:42:47.497Z,0.00
2023-04-28T01:43:47.496Z,0.00
2023-04-28T01:44:47.498Z,0.00
2023-04-28T01:45:47.532Z,0.00
2023-04-28T01:46:47.458Z,0.00
2023-04-28T01:47:47.490Z,0.00
2023-04-28T01:48:47.516Z,0.00
2023-04-28T01:49:47.390Z,0.00
2023-04-28T01:50:47.493Z,0.00
2023-04-28T01:51:47.515Z,0.00
2023-04-28T01:52:47.516Z,0.00
2023-04-28T01:53:47.487Z,0.00
2023-04-28T01:54:47.505Z,0.00
2023-04-28T01:55:47.503Z,0.00
2023-04-28T01:56:47.471Z,0.00
2023-04-28T01:57:47.529Z,0.00
2023-04-28T01:58:47.289Z,0.00
2023-04-28T01:59:47.283Z,0.00
2023-04-28T02:00:47.496Z,0.00
2023-04-28T02:01:47.529Z,0.00
2023-04-28T02:02:47.567Z,0.00
2023-04-28T02:03:47.600Z,0.00
2023-04-28T02:04:47.534Z,0.00
2023-04-28T02:05:47.496Z,0.00
2023-04-28T02:06:47.552Z,0.00
2023-04-28T02:07:47.526Z,0.00
2023-04-28T02:08:47.491Z,0.00
2023-04-28T02:09:47.168Z,0.00
2023-04-28T02:10:47.507Z,0.00
2023-04-28T02:11:47.132Z,0.00
2023-04-28T02:12:47.374Z,0.00
2023-04-28T02:13:47.124Z,0.00
2023-04-28T02:14:47.116Z,0.00
2023-04-28T02:15:47.202Z,0.00
2023-04-28T02:16:47.091Z,0.00
2023-04-28T02:17:47.088Z,0.00
2023-04-28T02:18:47.088Z,0.00
2023-04-28T02:19:47.106Z,0.00
2023-04-28T02:20:47.097Z,0.00
2023-04-28T02:21:47.078Z,0.00
2023-04-28T02:22:47.009Z,0.00
2023-04-28T02:23:46.982Z,0.00
2023-04-28T02:24:47.111Z,0.00
2023-04-28T02:25:47.022Z,0.00
2023-04-28T02:26:46.971Z,0.00
2023-04-28T02:27:47.116Z,0.00
2023-04-28T02:28:46.944Z,0.00
2023-04-28T02:29:46.915Z,0.00
2023-04-28T02:30:47.110Z,0.00
2023-04-28T02:31:46.928Z,0.00
2023-04-28T02:32:47.127Z,0.00
2023-04-28T02:33:46.892Z,0.00
2023-04-28T02:34:46.907Z,0.00
2023-04-28T02:35:46.938Z,0.00
2023-04-28T02:36:46.861Z,0.00
2023-04-28T02:37:46.830Z,0.00
2023-04-28T02:38:46.833Z,0.00
2023-04-28T02:39:47.059Z,0.00
2023-04-28T02:40:47.096Z,0.00
2023-04-28T02:41:46.787Z,0.00
2023-04-28T02:42:46.792Z,0.00
2023-04-28T02:43:46.760Z,0.00
2023-04-28T02:44:46.748Z,0.00
2023-04-28T02:45:46.830Z,0.00
2023-04-28T02:46:46.763Z,0.00
2023-04-28T02:47:46.795Z,0.00
2023-04-28T02:48:46.717Z,0.00
2023-04-28T02:49:46.877Z,0.00
2023-04-28T02:50:46.691Z,0.00
2023-04-28T02:51:46.917Z,0.00
2023-04-28T02:52:48.945Z,0.00
2023-04-28T02:53:46.645Z,0.00
2023-04-28T02:54:46.635Z,0.00
2023-04-28T02:55:46.623Z,0.00
2023-04-28T02:56:46.995Z,0.00
2023-04-28T02:57:46.770Z,0.00
2023-04-28T02:58:47.018Z,0.00
2023-04-28T02:59:47.021Z,0.00
2023-04-28T03:00:46.668Z,0.00
2023-04-28T03:01:47.059Z,0.00
2023-04-28T03:02:46.580Z,0.00
2023-04-28T03:03:47.238Z,0.00
2023-04-28T03:04:47.134Z,0.00
2023-04-28T03:05:47.126Z,0.00
2023-04-28T03:06:46.497Z,0.00
2023-04-28T03:07:47.119Z,0.00
2023-04-28T03:08:46.480Z,0.00
2023-04-28T03:09:47.127Z,0.00
2023-04-28T03:10:46.450Z,0.00
2023-04-28T03:11:46.437Z,0.00
2023-04-28T03:12:47.137Z,0.00
2023-04-28T03:13:47.136Z,0.00
2023-04-28T03:14:46.428Z,0.00
2023-04-28T03:15:46.689Z,0.00
2023-04-28T03:16:47.081Z,0.00
2023-04-28T03:17:46.383Z,0.00
2023-04-28T03:18:46.369Z,0.00
2023-04-28T03:19:46.325Z,0.00
2023-04-28T03:20:46.339Z,0.00
2023-04-28T03:21:46.377Z,0.00
2023-04-28T03:22:46.396Z,0.00
2023-04-28T03:23:46.283Z,0.00
2023-04-28T03:24:46.406Z,0.00
2023-04-28T03:25:46.493Z,0.00
2023-04-28T03:26:46.262Z,0.00
2023-04-28T03:27:46.228Z,0.00
2023-04-28T03:28:46.590Z,0.00
2023-04-28T03:29:46.216Z,0.00
2023-04-28T03:30:46.213Z,0.00
2023-04-28T03:31:46.709Z,0.00
2023-04-28T03:32:46.231Z,0.00
2023-04-28T03:33:46.189Z,0.00
2023-04-28T03:34:46.178Z,0.00
2023-04-28T03:35:46.139Z,0.00
2023-04-28T03:36:46.168Z,0.00
2023-04-28T03:37:46.146Z,0.00
2023-04-28T03:38:46.146Z,0.00
2023-04-28T03:39:46.121Z,0.00
2023-04-28T03:40:46.106Z,0.00
2023-04-28T03:41:46.065Z,0.00
2023-04-28T03:42:46.090Z,0.00
2023-04-28T03:43:46.037Z,0.00
2023-04-28T03:44:46.157Z,0.00
2023-04-28T03:45:46.054Z,0.00
2023-04-28T03:46:46.158Z,0.00
2023-04-28T03:47:46.053Z,0.00
2023-04-28T03:48:46.002Z,0.00
2023-04-28T03:49:45.988Z,0.00
2023-04-28T03:50:45.984Z,0.00
2023-04-28T03:51:45.948Z,0.00
2023-04-28T03:52:46.126Z,0.00
2023-04-28T03:53:45.928Z,0.00
2023-04-28T03:54:45.939Z,0.00
2023-04-28T03:55:46.157Z,0.00
2023-04-28T03:56:45.884Z,0.00
2023-04-28T03:57:45.890Z,0.00
2023-04-28T03:58:46.161Z,0.00
2023-04-28T03:59:45.898Z,0.00
2023-04-28T04:00:45.856Z,0.00
2023-04-28T04:01:45.849Z,0.00
2023-04-28T04:02:45.996Z,0.00
2023-04-28T04:03:46.154Z,0.00
2023-04-28T04:04:46.139Z,0.00
2023-04-28T04:05:45.968Z,0.00
2023-04-28T04:06:45.783Z,0.00
2023-04-28T04:07:45.785Z,0.00
2023-04-28T04:08:45.810Z,0.00
2023-04-28T04:09:45.830Z,4.00
2023-04-28T04:10:45.874Z,4.00
2023-04-28T04:11:45.733Z,4.00
2023-04-28T04:12:45.761Z,0.00
2023-04-28T04:13:45.736Z,0.00
2023-04-28T04:14:45.723Z,0.00
2023-04-28T04:15:45.765Z,4.00
2023-04-28T04:16:45.889Z,4.00
2023-04-28T04:17:46.129Z,4.00
2023-04-28T04:18:45.856Z,4.00
2023-04-28T04:19:45.885Z,4.00
2023-04-28T04:20:45.644Z,4.00
2023-04-28T04:21:45.642Z,4.00
2023-04-28T04:22:45.587Z,4.00
2023-04-28T04:23:45.600Z,4.00
2023-04-28T04:24:46.182Z,4.00
2023-04-28T04:25:45.616Z,4.00
2023-04-28T04:26:45.544Z,4.00
2023-04-28T04:27:45.558Z,4.00
2023-04-28T04:28:45.540Z,8.00
2023-04-28T04:29:45.522Z,4.00
2023-04-28T04:30:45.502Z,8.00
2023-04-28T04:31:45.582Z,8.00
2023-04-28T04:32:46.199Z,8.00
2023-04-28T04:33:45.473Z,8.00
2023-04-28T04:34:45.453Z,12.00
2023-04-28T04:35:46.201Z,12.00
2023-04-28T04:36:45.449Z,12.00
2023-04-28T04:37:45.440Z,12.00
2023-04-28T04:38:45.403Z,12.00
2023-04-28T04:39:45.441Z,12.00
2023-04-28T04:40:46.201Z,12.00
2023-04-28T04:41:46.206Z,12.00
2023-04-28T04:42:45.351Z,16.00
2023-04-28T04:43:45.368Z,16.00
2023-04-28T04:44:46.098Z,16.00
2023-04-28T04:45:45.353Z,16.00
2023-04-28T04:46:45.345Z,16.00
2023-04-28T04:47:45.364Z,16.00
2023-04-28T04:48:46.201Z,12.00
2023-04-28T04:49:45.986Z,12.00
2023-04-28T04:50:45.349Z,16.00
2023-04-28T04:51:46.209Z,16.00
2023-04-28T04:52:45.240Z,20.00
2023-04-28T04:53:45.250Z,20.00
2023-04-28T04:54:45.228Z,16.00
2023-04-28T04:55:45.250Z,20.00
2023-04-28T04:56:45.209Z,20.00
2023-04-28T04:57:45.203Z,20.00
2023-04-28T04:58:45.176Z,24.00
2023-04-28T04:59:45.180Z,28.00
2023-04-28T05:00:45.167Z,32.00
2023-04-28T05:01:45.169Z,32.00
2023-04-28T05:02:45.237Z,32.00
2023-04-28T05:03:45.304Z,32.00
2023-04-28T05:04:45.457Z,36.00
2023-04-28T05:05:46.348Z,36.00
2023-04-28T05:06:45.098Z,40.00
2023-04-28T05:07:45.082Z,44.00
2023-04-28T05:08:45.055Z,48.00
2023-04-28T05:09:45.059Z,48.00
2023-04-28T05:10:45.044Z,56.00
2023-04-28T05:11:45.051Z,60.00
2023-04-28T05:12:48.230Z,68.00
2023-04-28T05:13:45.006Z,80.00
2023-04-28T05:14:44.979Z,76.00
2023-04-28T05:15:44.989Z,76.00
2023-04-28T05:16:45.043Z,72.00
2023-04-28T05:17:45.015Z,68.00
2023-04-28T05:18:44.936Z,68.00
2023-04-28T05:19:44.937Z,68.00
2023-04-28T05:20:44.925Z,68.00
2023-04-28T05:21:44.920Z,68.00
2023-04-28T05:22:44.905Z,64.00
2023-04-28T05:23:44.905Z,56.00
2023-04-28T05:24:44.862Z,52.00
2023-04-28T05:25:44.872Z,48.00
2023-04-28T05:26:44.838Z,44.00
2023-04-28T05:27:44.861Z,40.00
2023-04-28T05:28:44.829Z,40.00
2023-04-28T05:29:44.823Z,40.00
2023-04-28T05:30:44.791Z,44.00
2023-04-28T05:31:44.870Z,44.00
2023-04-28T05:32:44.800Z,48.00
2023-04-28T05:33:44.791Z,52.00
2023-04-28T05:34:44.750Z,52.00
2023-04-28T05:35:44.761Z,52.00
2023-04-28T05:36:44.746Z,56.00
2023-04-28T05:37:44.715Z,60.00
2023-04-28T05:38:44.724Z,56.00
2023-04-28T05:39:44.717Z,60.00
2023-04-28T05:40:44.720Z,60.00
2023-04-28T05:41:44.681Z,64.00
2023-04-28T05:42:44.674Z,72.00
2023-04-28T05:43:44.685Z,72.00
2023-04-28T05:44:45.006Z,76.00
2023-04-28T05:45:44.730Z,76.00
2023-04-28T05:46:44.656Z,72.00
2023-04-28T05:47:44.679Z,64.00
2023-04-28T05:48:44.605Z,64.00
2023-04-28T05:49:44.624Z,64.00
2023-04-28T05:50:44.557Z,68.00
2023-04-28T05:51:44.602Z,72.00
2023-04-28T05:52:45.250Z,72.00
2023-04-28T05:53:44.538Z,68.00
2023-04-28T05:54:44.516Z,64.00
2023-04-28T05:55:44.526Z,64.00
2023-04-28T05:56:44.511Z,64.00
2023-04-28T05:57:52.279Z,64.00
2023-04-28T05:58:45.461Z,68.00
2023-04-28T05:59:44.564Z,84.00
2023-04-28T06:00:45.264Z,92.00
2023-04-28T06:01:44.451Z,100.00
2023-04-28T06:02:44.586Z,108.00
2023-04-28T06:03:44.498Z,116.00
2023-04-28T06:04:45.597Z,132.00
2023-04-28T06:05:44.559Z,140.00
2023-04-28T06:06:44.371Z,140.00
2023-04-28T06:07:44.377Z,128.00
2023-04-28T06:08:45.195Z,116.00
2023-04-28T06:09:44.352Z,112.00
2023-04-28T06:10:44.345Z,116.00
2023-04-28T06:11:44.331Z,124.00
2023-04-28T06:12:44.320Z,128.00
2023-04-28T06:13:44.303Z,132.00
2023-04-28T06:14:44.292Z,136.00
2023-04-28T06:15:44.314Z,140.00
2023-04-28T06:16:44.277Z,140.00
2023-04-28T06:17:44.340Z,124.00
2023-04-28T06:18:44.226Z,108.00
2023-04-28T06:19:44.240Z,96.00
2023-04-28T06:20:44.217Z,96.00
2023-04-28T06:21:44.204Z,104.00
2023-04-28T06:22:44.215Z,120.00
2023-04-28T06:23:44.199Z,144.00
2023-04-28T06:24:44.265Z,160.00
2023-04-28T06:25:44.179Z,156.00
2023-04-28T06:26:44.170Z,140.00
2023-04-28T06:27:44.157Z,116.00
2023-04-28T06:28:44.109Z,92.00
2023-04-28T06:29:44.114Z,80.00
2023-04-28T06:30:44.096Z,80.00
2023-04-28T06:31:44.149Z,92.00
2023-04-28T06:32:44.294Z,124.00
2023-04-28T06:33:44.075Z,156.00
2023-04-28T06:34:44.053Z,172.00
2023-04-28T06:35:44.076Z,200.00
2023-04-28T06:36:44.015Z,248.00
2023-04-28T06:37:44.021Z,328.00
2023-04-28T06:38:44.022Z,388.00
2023-04-28T06:39:43.995Z,528.00
2023-04-28T06:40:43.987Z,652.00
2023-04-28T06:41:44.011Z,1036.00
2023-04-28T06:42:43.967Z,676.00
2023-04-28T06:43:43.952Z,460.00
2023-04-28T06:44:43.927Z,684.00
2023-04-28T06:45:43.954Z,684.00
2023-04-28T06:46:43.932Z,532.00
2023-04-28T06:47:43.983Z,432.00
2023-04-28T06:48:43.890Z,540.00
2023-04-28T06:49:43.907Z,728.00
2023-04-28T06:50:44.082Z,860.00
2023-04-28T06:51:43.874Z,996.00
2023-04-28T06:52:43.833Z,1880.00
2023-04-28T06:53:43.838Z,2508.00
2023-04-28T06:54:43.909Z,6316.00
2023-04-28T06:55:44.269Z,2060.00
2023-04-28T06:56:44.269Z,2040.00
2023-04-28T06:58:43.782Z,744.00
2023-04-28T06:59:43.821Z,612.00
2023-04-28T07:00:43.788Z,536.00
2023-04-28T07:01:43.797Z,492.00
2023-04-28T07:02:43.987Z,456.00
2023-04-28T07:03:43.855Z,432.00
2023-04-28T07:04:43.689Z,428.00
2023-04-28T07:05:44.008Z,464.00
2023-04-28T07:06:43.735Z,572.00
2023-04-28T07:07:43.666Z,792.00
2023-04-28T07:08:43.670Z,1144.00
2023-04-28T07:09:44.857Z,1376.00
2023-04-28T07:10:43.797Z,1792.00
2023-04-28T07:11:44.254Z,4512.00
2023-04-28T07:12:43.643Z,1372.00
2023-04-28T07:13:43.615Z,1116.00
2023-04-28T07:14:43.604Z,1088.00
2023-04-28T07:15:43.645Z,1152.00
2023-04-28T07:16:43.646Z,1236.00
2023-04-28T07:17:44.504Z,1272.00
2023-04-28T07:18:44.322Z,1348.00
2023-04-28T07:19:43.553Z,1692.00
2023-04-28T07:20:44.429Z,3104.00
2023-04-28T07:21:44.366Z,3132.00
2023-04-28T07:22:44.264Z,2940.00
2023-04-28T07:23:43.621Z,2304.00
2023-04-28T07:24:44.438Z,2012.00
2023-04-28T07:25:44.342Z,2300.00
2023-04-28T07:26:44.333Z,2032.00
2023-04-28T07:27:44.274Z,2708.00
2023-04-28T07:28:44.182Z,3088.00
2023-04-28T07:29:44.347Z,1604.00
2023-04-28T07:30:44.371Z,1136.00
2023-04-28T07:31:44.365Z,984.00
2023-04-28T07:32:43.405Z,860.00
2023-04-28T07:33:44.221Z,744.00
2023-04-28T07:34:43.348Z,648.00
2023-04-28T07:35:43.430Z,584.00
2023-04-28T07:36:43.338Z,552.00
2023-04-28T07:37:43.385Z,508.00
2023-04-28T07:38:43.334Z,468.00
2023-04-28T07:39:43.325Z,436.00
2023-04-28T07:40:43.293Z,424.00
2023-04-28T07:41:43.278Z,420.00
2023-04-28T07:42:43.249Z,392.00
2023-04-28T07:43:43.286Z,376.00
2023-04-28T07:44:43.222Z,380.00
2023-04-28T07:45:43.244Z,392.00
2023-04-28T07:46:43.200Z,416.00
2023-04-28T07:47:43.206Z,428.00
2023-04-28T07:48:43.184Z,440.00
2023-04-28T07:49:43.705Z,420.00
2023-04-28T07:50:43.455Z,420.00
2023-04-28T07:51:43.154Z,432.00
2023-04-28T07:52:43.341Z,464.00
2023-04-28T07:53:43.366Z,524.00
2023-04-28T07:54:43.342Z,584.00
2023-04-28T07:55:43.350Z,624.00
2023-04-28T07:56:43.085Z,664.00
2023-04-28T07:57:43.089Z,720.00
2023-04-28T07:58:43.075Z,836.00
2023-04-28T07:59:43.055Z,1076.00
2023-04-28T08:00:43.068Z,1264.00
2023-04-28T08:01:43.074Z,1512.00
2023-04-28T08:02:43.291Z,1804.00
2023-04-28T08:03:43.283Z,2772.00
2023-04-28T08:04:43.186Z,3132.00
2023-04-28T08:05:43.046Z,3204.00
2023-04-28T08:06:42.953Z,2892.00
2023-04-28T08:07:42.959Z,2612.00
2023-04-28T08:08:42.936Z,2516.00
2023-04-28T08:09:42.985Z,2232.00
2023-04-28T08:10:43.252Z,2128.00
2023-04-28T08:11:42.917Z,2096.00
2023-04-28T08:12:42.904Z,2200.00
2023-04-28T08:13:42.873Z,2180.00
2023-04-28T08:14:42.900Z,2224.00
2023-04-28T08:15:42.893Z,1956.00
2023-04-28T08:16:42.867Z,2164.00
2023-04-28T08:17:42.837Z,2192.00
2023-04-28T08:18:42.948Z,2132.00
2023-04-28T08:19:42.801Z,2284.00
2023-04-28T08:20:42.830Z,2072.00
2023-04-28T08:21:42.775Z,2076.00
2023-04-28T08:22:42.783Z,1948.00
2023-04-28T08:23:42.767Z,2224.00
2023-04-28T08:24:42.764Z,2052.00
2023-04-28T08:25:42.761Z,2400.00
2023-04-28T08:26:42.748Z,2512.00
2023-04-28T08:27:42.707Z,2160.00
2023-04-28T08:28:42.709Z,2088.00
2023-04-28T08:29:42.688Z,2128.00
2023-04-28T08:30:42.681Z,2888.00
2023-04-28T08:31:42.742Z,2744.00
2023-04-28T08:32:42.685Z,2716.00
2023-04-28T08:33:42.638Z,2492.00
2023-04-28T08:34:42.651Z,2676.00
2023-04-28T08:35:42.627Z,1936.00
2023-04-28T08:36:42.633Z,1680.00
2023-04-28T08:37:42.597Z,1276.00
2023-04-28T08:38:42.596Z,1020.00
2023-04-28T08:39:42.566Z,804.00
2023-04-28T08:40:43.389Z,644.00
2023-04-28T08:41:42.556Z,608.00
2023-04-28T08:42:42.560Z,604.00
2023-04-28T08:43:42.524Z,640.00
2023-04-28T08:44:42.552Z,656.00
2023-04-28T08:45:43.402Z,668.00
2023-04-28T08:46:42.577Z,660.00
2023-04-28T08:47:42.497Z,612.00
2023-04-28T08:48:42.476Z,516.00
2023-04-28T08:49:42.466Z,468.00
2023-04-28T08:50:42.443Z,428.00
2023-04-28T08:51:42.463Z,404.00
2023-04-28T08:52:42.431Z,408.00
2023-04-28T08:54:06.161Z,456.00
2023-04-28T08:54:43.399Z,540.00
2023-04-28T08:55:42.370Z,764.00
2023-04-28T08:56:42.429Z,1116.00
2023-04-28T08:57:42.349Z,1108.00
2023-04-28T08:58:42.377Z,1096.00
2023-04-28T08:59:42.332Z,1236.00
2023-04-28T09:00:42.345Z,1132.00
2023-04-28T09:01:42.370Z,956.00
2023-04-28T09:02:42.751Z,768.00
2023-04-28T09:03:42.507Z,672.00
2023-04-28T09:04:42.613Z,620.00
2023-04-28T09:05:42.296Z,608.00
2023-04-28T09:06:42.256Z,724.00
2023-04-28T09:07:42.255Z,1024.00
2023-04-28T09:08:42.269Z,1220.00
2023-04-28T09:09:42.228Z,1568.00
2023-04-28T09:10:42.242Z,1532.00
2023-04-28T09:11:42.190Z,1344.00
2023-04-28T09:12:42.233Z,1212.00
2023-04-28T09:13:42.171Z,960.00
2023-04-28T09:14:42.167Z,736.00
2023-04-28T09:15:42.152Z,596.00
2023-04-28T09:16:42.177Z,528.00
2023-04-28T09:17:42.193Z,484.00
2023-04-28T09:18:42.126Z,436.00
2023-04-28T09:19:42.095Z,404.00
2023-04-28T09:20:42.114Z,384.00
2023-04-28T09:21:42.072Z,352.00
2023-04-28T09:22:42.125Z,364.00
2023-04-28T09:23:42.047Z,412.00
2023-04-28T09:24:42.052Z,452.00
2023-04-28T09:25:42.025Z,544.00
2023-04-28T09:26:42.022Z,636.00
2023-04-28T09:27:42.034Z,652.00
2023-04-28T09:28:42.033Z,572.00
2023-04-28T09:29:41.974Z,520.00
2023-04-28T09:30:41.983Z,552.00
2023-04-28T09:31:41.976Z,588.00
2023-04-28T09:32:42.023Z,632.00
2023-04-28T09:33:41.924Z,644.00
2023-04-28T09:34:41.942Z,724.00
2023-04-28T09:35:41.916Z,768.00
2023-04-28T09:36:41.918Z,796.00
2023-04-28T09:37:41.941Z,816.00
2023-04-28T09:38:41.944Z,940.00
2023-04-28T09:39:41.891Z,1036.00
2023-04-28T09:40:41.886Z,1176.00
2023-04-28T09:41:41.860Z,1256.00
2023-04-28T09:42:41.875Z,1308.00
2023-04-28T09:43:41.832Z,1284.00
2023-04-28T09:44:41.825Z,1248.00
2023-04-28T09:45:41.817Z,1160.00
2023-04-28T09:46:41.813Z,1016.00
2023-04-28T09:47:41.812Z,856.00
2023-04-28T09:48:41.791Z,708.00
2023-04-28T09:49:41.746Z,656.00
2023-04-28T09:50:41.789Z,676.00
2023-04-28T09:51:41.747Z,648.00
2023-04-28T09:52:41.730Z,652.00
2023-04-28T09:53:41.713Z,628.00
2023-04-28T09:54:41.723Z,660.00
2023-04-28T09:55:41.685Z,632.00
2023-04-28T09:56:41.691Z,632.00
2023-04-28T09:57:41.655Z,648.00
2023-04-28T09:58:41.675Z,660.00
2023-04-28T09:59:42.478Z,704.00
2023-04-28T10:00:41.649Z,788.00
2023-04-28T10:01:41.686Z,904.00
2023-04-28T10:03:42.751Z,1244.00
2023-04-28T10:04:07.146Z,1068.00
2023-04-28T10:04:41.794Z,1412.00
2023-04-28T10:05:41.656Z,1508.00
2023-04-28T10:06:41.566Z,1636.00
2023-04-28T10:07:41.551Z,1396.00
2023-04-28T10:08:41.562Z,1308.00
2023-04-28T10:09:41.529Z,1164.00
2023-04-28T10:10:41.512Z,1084.00
2023-04-28T10:11:41.490Z,1080.00
2023-04-28T10:12:41.509Z,1044.00
2023-04-28T10:13:41.490Z,1024.00
2023-04-28T10:14:41.674Z,1064.00
2023-04-28T10:15:41.534Z,1100.00
2023-04-28T10:16:41.455Z,1120.00
2023-04-28T10:17:41.449Z,1128.00
2023-04-28T10:18:41.434Z,1136.00
2023-04-28T10:19:41.423Z,1108.00
2023-04-28T10:20:41.406Z,1112.00
2023-04-28T10:21:41.384Z,1092.00
2023-04-28T10:22:41.389Z,1000.00
2023-04-28T10:23:41.351Z,1004.00
2023-04-28T10:24:41.365Z,976.00
2023-04-28T10:25:41.347Z,1008.00
2023-04-28T10:26:41.343Z,1048.00
2023-04-28T10:27:41.305Z,1100.00
2023-04-28T10:28:42.623Z,1096.00
2023-04-28T10:29:41.303Z,1108.00
2023-04-28T10:30:41.315Z,1112.00
2023-04-28T10:31:41.394Z,1128.00
2023-04-28T10:32:41.337Z,1156.00
2023-04-28T10:33:41.236Z,1300.00
2023-04-28T10:34:41.256Z,1320.00
2023-04-28T10:35:41.470Z,1700.00
2023-04-28T10:36:41.225Z,1400.00
2023-04-28T10:37:41.307Z,1464.00
2023-04-28T10:38:41.214Z,1648.00
2023-04-28T10:39:41.165Z,1704.00
2023-04-28T10:40:41.191Z,1552.00
2023-04-28T10:41:41.143Z,1176.00
2023-04-28T10:42:41.167Z,1068.00
2023-04-28T10:43:41.138Z,996.00
2023-04-28T10:44:41.144Z,944.00
2023-04-28T10:45:42.027Z,952.00
2023-04-28T10:46:41.125Z,996.00
2023-04-28T10:47:41.137Z,908.00
2023-04-28T10:48:41.086Z,928.00
2023-04-28T10:49:41.054Z,916.00
2023-04-28T10:50:41.327Z,984.00
2023-04-28T10:51:41.052Z,1044.00
2023-04-28T10:52:41.087Z,1080.00
2023-04-28T10:53:41.035Z,956.00
2023-04-28T10:54:41.021Z,904.00
2023-04-28T10:55:40.989Z,868.00
2023-04-28T10:56:42.032Z,800.00
2023-04-28T10:57:40.964Z,848.00
2023-04-28T10:58:40.985Z,1148.00
2023-04-28T10:59:40.935Z,892.00
2023-04-28T11:00:40.959Z,956.00
2023-04-28T11:01:40.990Z,1224.00
2023-04-28T11:02:43.906Z,1192.00
2023-04-28T11:03:41.083Z,1132.00
2023-04-28T11:04:41.042Z,1028.00
2023-04-28T11:05:40.874Z,1096.00
2023-04-28T11:06:40.893Z,796.00
2023-04-28T11:07:40.863Z,736.00
2023-04-28T11:08:40.857Z,732.00
2023-04-28T11:09:40.819Z,764.00
2023-04-28T11:10:40.828Z,872.00
2023-04-28T11:11:40.928Z,908.00
2023-04-28T11:12:40.810Z,1016.00
2023-04-28T11:13:42.343Z,892.00
2023-04-28T11:14:41.082Z,892.00
2023-04-28T11:15:40.772Z,1020.00
2023-04-28T11:16:40.814Z,972.00
2023-04-28T11:17:40.805Z,1024.00
2023-04-28T11:18:40.727Z,1056.00
2023-04-28T11:19:41.177Z,1116.00
2023-04-28T11:20:40.713Z,1120.00
2023-04-28T11:21:40.733Z,1308.00
2023-04-28T11:22:40.692Z,1116.00
2023-04-28T11:23:40.670Z,1180.00
2023-04-28T11:24:40.662Z,1184.00
2023-04-28T11:25:40.625Z,1256.00
2023-04-28T11:26:41.027Z,1372.00
2023-04-28T11:27:41.458Z,1556.00
2023-04-28T11:28:40.612Z,1320.00
2023-04-28T11:29:40.566Z,1576.00
2023-04-28T11:30:40.593Z,1348.00
2023-04-28T11:31:40.714Z,1184.00
2023-04-28T11:32:40.569Z,1112.00
2023-04-28T11:33:40.636Z,1096.00
2023-04-28T11:34:40.534Z,1044.00
2023-04-28T11:35:40.511Z,1008.00
2023-04-28T11:36:40.524Z,1020.00
2023-04-28T11:37:40.501Z,988.00
2023-04-28T11:38:40.488Z,948.00
2023-04-28T11:39:40.465Z,1244.00
2023-04-28T11:40:40.445Z,980.00
2023-04-28T11:41:40.443Z,964.00
2023-04-28T11:42:40.437Z,1036.00
2023-04-28T11:43:47.440Z,1044.00
2023-04-28T11:44:41.456Z,972.00
2023-04-28T11:45:40.427Z,880.00
2023-04-28T11:46:40.427Z,800.00
2023-04-28T11:47:40.439Z,740.00
2023-04-28T11:48:40.374Z,732.00
2023-04-28T11:49:40.550Z,772.00
2023-04-28T11:50:40.547Z,728.00
2023-04-28T11:51:41.448Z,696.00
2023-04-28T11:52:40.999Z,680.00
2023-04-28T11:53:40.557Z,692.00
2023-04-28T11:54:40.336Z,728.00
2023-04-28T11:55:40.302Z,748.00
2023-04-28T11:56:40.397Z,724.00
2023-04-28T11:57:40.433Z,672.00
2023-04-28T11:58:40.274Z,636.00
2023-04-28T11:59:42.660Z,600.00
2023-04-28T12:00:40.259Z,556.00
2023-04-28T12:01:40.215Z,532.00
2023-04-28T12:02:40.357Z,552.00
2023-04-28T12:03:40.310Z,640.00
2023-04-28T12:04:40.249Z,676.00
2023-04-28T12:05:40.234Z,648.00
2023-04-28T12:06:40.188Z,604.00
2023-04-28T12:07:40.151Z,568.00
2023-04-28T12:08:40.149Z,536.00
2023-04-28T12:09:40.202Z,528.00
2023-04-28T12:10:40.153Z,496.00
2023-04-28T12:11:40.083Z,492.00
2023-04-28T12:12:50.016Z,548.00
2023-04-28T12:13:41.559Z,648.00
2023-04-28T12:14:40.129Z,716.00
2023-04-28T12:15:40.111Z,708.00
2023-04-28T12:16:40.062Z,612.00
2023-04-28T12:17:40.511Z,512.00
2023-04-28T12:18:40.047Z,432.00
2023-04-28T12:19:40.051Z,400.00
2023-04-28T12:20:40.029Z,380.00
2023-04-28T12:21:40.014Z,380.00
2023-04-28T12:22:40.006Z,400.00
2023-04-28T12:23:39.954Z,388.00
2023-04-28T12:24:39.940Z,388.00
2023-04-28T12:25:40.587Z,412.00
2023-04-28T12:26:39.931Z,448.00
2023-04-28T12:27:39.907Z,468.00
2023-04-28T12:28:39.901Z,480.00
2023-04-28T12:29:39.928Z,608.00
2023-04-28T12:30:40.286Z,624.00
2023-04-28T12:31:39.948Z,620.00
2023-04-28T12:32:39.864Z,596.00
2023-04-28T12:33:39.848Z,648.00
2023-04-28T12:34:39.996Z,676.00
2023-04-28T12:35:40.554Z,632.00
2023-04-28T12:36:40.568Z,564.00
2023-04-28T12:37:39.817Z,536.00
2023-04-28T12:38:40.565Z,512.00
2023-04-28T12:39:40.020Z,516.00
2023-04-28T12:40:39.766Z,644.00
2023-04-28T12:41:39.794Z,660.00
2023-04-28T12:42:39.814Z,644.00
2023-04-28T12:43:39.854Z,660.00
2023-04-28T12:44:39.924Z,640.00